York Harbor, Maine
Current Conditions -  °F | °C
As of 10:58 PM on Sunday 25 Jan 2015 (Local Time) from KPSM Reporting Station
Scattered Clouds Scattered Clouds  
Wind Chill: -2°   Ceiling: Unl
Heat Index: 14°   Visibility: 10mi
Dew Point: -2°   Wind: 15mph
Humidity: 49%   Direction: 300°WNW
Pressure: 30.01"   Gusts: NA
Location:  43.14°N, 70.65°W
Report Text: KPSM 260358Z 30013KT 10SM FEW120 SCT200 M10/M19 A3001 RMK AO2A SLP167 T11011191
Loading
Personal Weather Stations






























Interactive Weather Map New forecast layout! Learn more

10-Day Weather Forecast

Advertisements
Track Severe Weather on mobile